createdAt,value
2022-11-07T00:00:32.605Z,76.40
2022-11-07T00:02:35.622Z,76.40
2022-11-07T00:04:39.382Z,76.60
2022-11-07T00:06:42.736Z,76.70
2022-11-07T00:08:45.750Z,76.60
2022-11-07T00:10:55.368Z,76.50
2022-11-07T00:12:58.256Z,76.60
2022-11-07T00:15:01.281Z,76.50
2022-11-07T00:17:04.193Z,76.30
2022-11-07T00:19:07.126Z,76.30
2022-11-07T00:21:11.511Z,76.20
2022-11-07T00:23:14.676Z,76.40
2022-11-07T00:25:18.049Z,76.30
2022-11-07T00:27:22.333Z,76.30
2022-11-07T00:29:25.327Z,76.20
2022-11-07T00:31:28.282Z,76.40
2022-11-07T00:33:31.584Z,76.50
2022-11-07T00:35:34.883Z,76.60
2022-11-07T00:37:37.716Z,76.60
2022-11-07T00:39:40.700Z,76.80
2022-11-07T00:41:43.523Z,76.60
2022-11-07T00:43:48.009Z,76.40
2022-11-07T00:45:51.147Z,76.40
2022-11-07T00:47:54.599Z,76.80
2022-11-07T00:49:57.493Z,76.80
2022-11-07T00:52:00.386Z,76.80
2022-11-07T00:54:03.882Z,76.70
2022-11-07T00:56:08.942Z,76.70
2022-11-07T00:58:14.239Z,76.70
2022-11-07T01:00:19.028Z,76.60
2022-11-07T01:02:22.293Z,76.90
2022-11-07T01:04:42.989Z,77.10
2022-11-07T01:06:46.805Z,77.00
2022-11-07T01:08:49.706Z,77.10
2022-11-07T01:10:52.703Z,77.00
2022-11-07T01:12:55.601Z,77.00
2022-11-07T01:14:58.710Z,76.90
2022-11-07T01:17:03.043Z,76.90
2022-11-07T01:19:06.819Z,76.80
2022-11-07T01:21:15.263Z,76.80
2022-11-07T01:23:19.745Z,76.80
2022-11-07T01:25:22.650Z,76.70
2022-11-07T01:27:25.537Z,76.80
2022-11-07T01:29:28.442Z,76.90
2022-11-07T01:31:32.105Z,76.90
2022-11-07T01:33:36.909Z,76.90
2022-11-07T01:35:40.153Z,77.10
2022-11-07T01:37:43.070Z,77.30
2022-11-07T01:39:45.933Z,77.10
2022-11-07T01:41:47.833Z,77.10
2022-11-07T01:43:58.891Z,77.10
2022-11-07T01:46:01.723Z,77.10
2022-11-07T01:48:05.088Z,77.00
2022-11-07T01:50:09.753Z,77.20
2022-11-07T01:52:18.372Z,77.10
2022-11-07T01:54:26.475Z,77.00
2022-11-07T01:56:33.406Z,77.20
2022-11-07T01:58:36.406Z,77.20
2022-11-07T02:00:39.445Z,77.20
2022-11-07T02:02:43.598Z,77.20
2022-11-07T02:04:47.980Z,77.40
2022-11-07T02:06:56.817Z,77.40
2022-11-07T02:08:59.769Z,77.40
2022-11-07T02:11:04.760Z,77.50
2022-11-07T02:13:09.006Z,77.50
2022-11-07T02:15:12.493Z,77.60
2022-11-07T02:17:16.652Z,77.50
2022-11-07T02:19:25.585Z,77.90
2022-11-07T02:21:39.053Z,78.00
2022-11-07T02:23:49.938Z,78.10
2022-11-07T02:25:54.523Z,77.70
2022-11-07T02:28:00.503Z,77.80
2022-11-07T02:30:06.065Z,77.60
2022-11-07T02:32:10.929Z,77.60
2022-11-07T02:34:13.787Z,77.50
2022-11-07T02:36:20.419Z,77.60
2022-11-07T02:38:27.825Z,77.70
2022-11-07T02:40:32.647Z,77.70
2022-11-07T02:42:44.368Z,77.60
2022-11-07T02:44:48.614Z,77.80
2022-11-07T02:46:51.599Z,77.90
2022-11-07T02:48:57.694Z,78.00
2022-11-07T02:51:00.842Z,78.00
2022-11-07T02:53:03.885Z,78.10
2022-11-07T02:55:08.399Z,78.10
2022-11-07T02:57:11.311Z,78.30
2022-11-07T02:59:15.510Z,78.30
2022-11-07T03:01:18.453Z,78.30
2022-11-07T03:03:21.477Z,78.30
2022-11-07T03:05:24.316Z,78.30
2022-11-07T03:07:27.506Z,78.20
2022-11-07T03:09:30.407Z,78.40
2022-11-07T03:11:35.864Z,78.40
2022-11-07T03:13:39.205Z,78.60
2022-11-07T03:15:43.539Z,78.90
2022-11-07T03:17:46.421Z,78.90
2022-11-07T03:19:49.396Z,78.90
2022-11-07T03:21:52.312Z,79.00
2022-11-07T03:23:55.296Z,79.10
2022-11-07T03:25:58.283Z,79.20
2022-11-07T03:28:01.184Z,79.20
2022-11-07T03:30:04.666Z,79.20
2022-11-07T03:32:08.981Z,79.40
2022-11-07T03:34:12.028Z,79.30
2022-11-07T03:36:14.923Z,79.40
2022-11-07T03:38:17.805Z,79.40
2022-11-07T03:40:20.864Z,79.60
2022-11-07T03:42:23.747Z,79.70
2022-11-07T03:44:26.715Z,80.40
2022-11-07T03:46:29.562Z,80.00
2022-11-07T03:48:33.858Z,80.20
2022-11-07T03:50:36.818Z,80.30
2022-11-07T03:52:39.848Z,80.20
2022-11-07T03:54:43.745Z,80.70
2022-11-07T03:56:46.720Z,80.80
2022-11-07T03:58:49.579Z,80.90
2022-11-07T04:00:53.047Z,81.00
2022-11-07T04:02:56.041Z,81.10
2022-11-07T04:05:00.401Z,81.00
2022-11-07T04:07:03.675Z,81.10
2022-11-07T04:09:06.630Z,81.10
2022-11-07T04:11:29.512Z,81.20
2022-11-07T04:13:49.689Z,81.40
2022-11-07T04:16:14.961Z,81.40
2022-11-07T04:18:20.266Z,81.40
2022-11-07T04:20:24.555Z,81.40
2022-11-07T04:22:27.972Z,81.40
2022-11-07T04:24:30.919Z,81.40
2022-11-07T04:26:51.215Z,81.50
2022-11-07T04:28:54.111Z,81.60
2022-11-07T04:30:57.072Z,81.70
2022-11-07T04:33:01.451Z,81.80
2022-11-07T04:35:04.622Z,81.80
2022-11-07T04:37:08.934Z,81.90
2022-11-07T04:39:11.838Z,82.10
2022-11-07T04:41:23.544Z,82.10
2022-11-07T04:43:28.518Z,82.20
2022-11-07T04:45:31.458Z,82.30
2022-11-07T04:47:39.994Z,82.30
2022-11-07T04:49:43.568Z,82.30
2022-11-07T04:51:46.459Z,82.10
2022-11-07T04:53:50.677Z,81.90
2022-11-07T04:55:53.646Z,81.80
2022-11-07T04:57:56.535Z,81.80
2022-11-07T04:59:59.500Z,81.80
2022-11-07T05:02:02.720Z,81.70
2022-11-07T05:04:05.928Z,81.70
2022-11-07T05:06:10.493Z,81.70
2022-11-07T05:08:13.385Z,81.80
2022-11-07T05:10:21.588Z,81.70
2022-11-07T05:12:24.467Z,81.70
2022-11-07T05:14:27.564Z,81.70
2022-11-07T05:16:32.197Z,81.60
2022-11-07T05:18:35.110Z,81.80
2022-11-07T05:20:39.507Z,81.80
2022-11-07T05:23:08.378Z,81.80
2022-11-07T05:25:11.283Z,81.60
2022-11-07T05:27:19.804Z,81.70
2022-11-07T05:29:22.691Z,81.90
2022-11-07T05:31:25.681Z,82.00
2022-11-07T05:33:29.395Z,82.00
2022-11-07T05:35:32.277Z,82.00
2022-11-07T05:37:35.196Z,81.70
2022-11-07T05:39:38.264Z,81.80
2022-11-07T05:41:41.175Z,81.80
2022-11-07T05:43:45.673Z,81.90
2022-11-07T05:45:48.588Z,81.90
2022-11-07T05:47:58.286Z,82.20
2022-11-07T05:50:01.167Z,82.10
2022-11-07T05:52:04.050Z,82.20
2022-11-07T05:54:07.001Z,82.20
2022-11-07T05:56:09.879Z,82.20
2022-11-07T05:58:13.422Z,82.20
2022-11-07T06:00:19.066Z,82.30
2022-11-07T06:02:22.017Z,82.30
2022-11-07T06:04:25.101Z,82.40
2022-11-07T06:06:28.099Z,82.30
2022-11-07T06:08:31.089Z,82.90
2022-11-07T06:10:34.128Z,82.10
2022-11-07T06:12:37.034Z,82.20
2022-11-07T06:14:39.897Z,82.30
2022-11-07T06:16:44.116Z,82.50
2022-11-07T06:18:46.974Z,82.50
2022-11-07T06:20:49.940Z,82.70
2022-11-07T06:22:53.627Z,82.70
2022-11-07T06:24:56.495Z,82.80
2022-11-07T06:26:59.560Z,82.90
2022-11-07T06:29:02.511Z,82.80
2022-11-07T06:31:06.605Z,82.70
2022-11-07T06:33:14.019Z,82.60
2022-11-07T06:35:17.134Z,82.50
2022-11-07T06:37:20.057Z,82.40
2022-11-07T06:39:23.443Z,82.40
2022-11-07T06:41:26.297Z,82.50
2022-11-07T06:43:33.538Z,82.60
2022-11-07T06:45:37.371Z,82.70
2022-11-07T06:47:40.253Z,82.70
2022-11-07T06:49:44.537Z,82.80
2022-11-07T06:51:48.089Z,83.10
2022-11-07T06:53:51.373Z,83.30
2022-11-07T06:55:54.713Z,83.40
2022-11-07T06:57:59.263Z,83.30
2022-11-07T07:00:02.422Z,83.50
2022-11-07T07:02:05.375Z,83.30
2022-11-07T07:04:11.205Z,83.40
2022-11-07T07:06:17.239Z,83.50
2022-11-07T07:08:20.116Z,83.60
2022-11-07T07:10:24.873Z,83.50
2022-11-07T07:12:27.878Z,83.60
2022-11-07T07:14:30.767Z,83.40
2022-11-07T07:16:33.674Z,83.40
2022-11-07T07:18:36.800Z,83.40
2022-11-07T07:20:39.698Z,83.40
2022-11-07T07:22:45.734Z,83.70
2022-11-07T07:24:51.399Z,83.80
2022-11-07T07:26:54.251Z,83.80
2022-11-07T07:28:57.123Z,83.60
2022-11-07T07:31:10.156Z,83.80
2022-11-07T07:33:13.649Z,83.90
2022-11-07T07:35:16.921Z,83.80
2022-11-07T07:37:19.825Z,83.90
2022-11-07T07:39:24.573Z,83.80
2022-11-07T07:41:27.450Z,83.80
2022-11-07T07:43:30.892Z,83.80
2022-11-07T07:45:34.153Z,84.00
2022-11-07T07:47:37.247Z,84.20
2022-11-07T07:49:40.913Z,84.20
2022-11-07T07:51:44.039Z,83.80
2022-11-07T07:53:53.679Z,83.90
2022-11-07T07:55:58.991Z,84.20
2022-11-07T07:58:02.034Z,84.10
2022-11-07T08:00:05.564Z,84.20
2022-11-07T08:02:11.961Z,84.10
2022-11-07T08:04:14.947Z,84.00
2022-11-07T08:06:17.957Z,83.60
2022-11-07T08:08:21.132Z,83.40
2022-11-07T08:12:50.247Z,83.40
2022-11-07T08:14:53.206Z,83.50
2022-11-07T08:16:56.093Z,83.70
2022-11-07T08:18:58.990Z,82.70
2022-11-07T08:21:01.847Z,82.80
2022-11-07T08:23:11.325Z,82.70
2022-11-07T08:25:18.867Z,82.80
2022-11-07T08:27:21.763Z,83.30
2022-11-07T08:29:26.117Z,82.60
2022-11-07T08:31:29.054Z,82.40
2022-11-07T08:33:32.506Z,82.50
2022-11-07T08:35:41.127Z,82.50
2022-11-07T08:37:45.278Z,83.10
2022-11-07T08:39:48.163Z,82.30
2022-11-07T08:41:51.058Z,82.90
2022-11-07T08:43:53.909Z,82.50
2022-11-07T08:45:58.240Z,81.80
2022-11-07T08:48:01.305Z,80.90
2022-11-07T08:50:04.383Z,80.60
2022-11-07T08:52:07.260Z,80.40
2022-11-07T08:54:10.217Z,80.30
2022-11-07T08:56:13.136Z,80.60
2022-11-07T08:58:16.203Z,80.00
2022-11-07T09:00:19.691Z,80.00
2022-11-07T09:03:12.513Z,79.80
2022-11-07T09:04:46.903Z,79.80
2022-11-07T09:06:49.953Z,79.00
2022-11-07T09:08:52.838Z,79.40
2022-11-07T09:10:55.706Z,79.60
2022-11-07T09:12:58.623Z,78.90
2022-11-07T09:15:01.542Z,79.00
2022-11-07T09:17:04.490Z,79.60
2022-11-07T09:19:08.743Z,78.90
2022-11-07T09:21:12.610Z,78.70
2022-11-07T09:23:17.114Z,78.50
2022-11-07T09:25:20.353Z,79.40
2022-11-07T09:27:23.398Z,79.10
2022-11-07T09:29:26.592Z,79.10
2022-11-07T09:31:29.506Z,79.30
2022-11-07T09:33:33.113Z,79.00
2022-11-07T09:35:37.351Z,78.40
2022-11-07T09:37:40.421Z,77.90
2022-11-07T09:39:45.147Z,77.70
2022-11-07T09:41:56.606Z,76.80
2022-11-07T09:44:10.955Z,76.80
2022-11-07T09:46:26.007Z,76.70
2022-11-07T09:48:39.496Z,77.40
2022-11-07T09:50:49.092Z,77.10
2022-11-07T09:52:58.409Z,76.30
2022-11-07T09:55:07.233Z,76.50
2022-11-07T09:57:14.363Z,76.60
2022-11-07T09:59:37.054Z,77.10
2022-11-07T10:01:40.096Z,76.30
2022-11-07T10:04:10.140Z,76.40
2022-11-07T10:06:16.924Z,76.00
2022-11-07T10:08:29.186Z,75.90
2022-11-07T10:10:41.276Z,75.80
2022-11-07T10:13:31.926Z,76.20
2022-11-07T10:15:46.809Z,76.60
2022-11-07T10:18:00.181Z,75.80
2022-11-07T10:20:14.664Z,76.50
2022-11-07T10:22:32.487Z,76.70
2022-11-07T10:24:46.367Z,75.70
2022-11-07T10:26:49.213Z,75.00
2022-11-07T10:28:57.695Z,75.40
2022-11-07T10:31:03.094Z,74.60
2022-11-07T10:33:12.453Z,75.50
2022-11-07T10:35:24.584Z,73.30
2022-11-07T10:37:28.786Z,74.70
2022-11-07T10:39:33.162Z,75.40
2022-11-07T10:41:37.969Z,75.50
2022-11-07T10:43:42.828Z,75.00
2022-11-07T10:45:46.421Z,74.80
2022-11-07T10:48:01.097Z,75.00
2022-11-07T10:50:18.512Z,75.60
2022-11-07T10:52:21.439Z,75.20
2022-11-07T10:54:30.295Z,74.40
2022-11-07T10:56:45.780Z,74.50
2022-11-07T10:58:48.951Z,74.10
2022-11-07T11:01:03.358Z,74.70
2022-11-07T11:03:17.369Z,75.00
2022-11-07T11:05:26.639Z,74.40
2022-11-07T11:07:36.205Z,74.40
2022-11-07T11:09:51.132Z,74.70
2022-11-07T11:11:54.123Z,73.10
2022-11-07T11:14:11.760Z,74.60
2022-11-07T11:16:26.388Z,74.80
2022-11-07T11:18:29.284Z,75.50
2022-11-07T11:20:36.915Z,74.60
2022-11-07T11:22:42.990Z,74.80
2022-11-07T11:24:47.299Z,75.50
2022-11-07T11:26:52.985Z,74.80
2022-11-07T11:29:00.924Z,75.00
2022-11-07T11:31:06.546Z,75.30
2022-11-07T11:33:17.982Z,74.40
2022-11-07T11:35:38.866Z,75.10
2022-11-07T11:37:48.214Z,75.70
2022-11-07T11:40:07.177Z,76.00
2022-11-07T11:42:26.678Z,75.70
2022-11-07T11:44:38.149Z,75.50
2022-11-07T11:46:46.988Z,75.40
2022-11-07T11:48:53.891Z,75.30
2022-11-07T11:51:01.230Z,75.90
2022-11-07T11:53:04.088Z,76.00
2022-11-07T11:55:15.476Z,76.10
2022-11-07T11:57:23.820Z,75.80
2022-11-07T11:59:42.837Z,76.10
2022-11-07T12:01:54.225Z,76.30
2022-11-07T12:04:17.447Z,76.40
2022-11-07T12:06:25.666Z,76.20
2022-11-07T12:08:48.752Z,76.30
2022-11-07T12:11:00.277Z,76.40
2022-11-07T12:13:15.813Z,76.40
2022-11-07T12:15:42.507Z,76.50
2022-11-07T12:17:52.626Z,76.40
2022-11-07T12:20:01.956Z,76.30
2022-11-07T12:22:14.364Z,76.20
2022-11-07T12:24:33.939Z,76.00
2022-11-07T12:26:44.868Z,75.70
2022-11-07T12:28:56.731Z,75.90
2022-11-07T12:31:11.343Z,75.80
2022-11-07T12:33:25.162Z,75.60
2022-11-07T12:35:37.898Z,75.60
2022-11-07T12:37:57.227Z,75.50
2022-11-07T12:40:11.682Z,75.10
2022-11-07T12:42:27.371Z,75.20
2022-11-07T12:44:55.836Z,75.00
2022-11-07T12:47:01.255Z,74.80
2022-11-07T12:49:26.924Z,75.40
2022-11-07T12:51:43.706Z,75.30
2022-11-07T12:53:56.794Z,75.40
2022-11-07T12:56:04.724Z,75.70
2022-11-07T12:58:16.242Z,75.90
2022-11-07T13:00:27.625Z,75.10
2022-11-07T13:02:48.059Z,74.90
2022-11-07T13:04:56.410Z,75.10
2022-11-07T13:07:04.255Z,74.70
2022-11-07T13:09:16.307Z,75.10
2022-11-07T13:11:25.446Z,75.40
2022-11-07T13:13:42.646Z,75.10
2022-11-07T13:16:13.551Z,75.10
2022-11-07T13:18:19.786Z,74.80
2022-11-07T13:20:32.280Z,74.40
2022-11-07T13:22:37.118Z,74.40
2022-11-07T13:24:52.797Z,74.70
2022-11-07T13:26:55.696Z,74.20
2022-11-07T13:29:01.108Z,74.50
2022-11-07T13:31:07.823Z,74.40
2022-11-07T13:33:28.047Z,74.30
2022-11-07T13:35:32.685Z,74.40
2022-11-07T13:37:38.535Z,74.40
2022-11-07T13:39:41.619Z,74.70
2022-11-07T13:41:45.560Z,74.80
2022-11-07T13:43:55.578Z,74.80
2022-11-07T13:46:03.396Z,74.50
2022-11-07T13:48:16.276Z,74.90
2022-11-07T13:50:23.798Z,74.90
2022-11-07T13:52:38.525Z,74.90
2022-11-07T13:54:50.443Z,75.00
2022-11-07T13:56:57.904Z,75.10
2022-11-07T13:59:03.177Z,75.10
2022-11-07T14:01:13.389Z,75.40
2022-11-07T14:03:29.149Z,75.30
2022-11-07T14:05:36.156Z,75.30
2022-11-07T14:07:41.708Z,75.50
2022-11-07T14:09:45.698Z,75.80
2022-11-07T14:11:52.472Z,76.00
2022-11-07T14:13:55.904Z,75.70
2022-11-07T14:16:01.285Z,75.70
2022-11-07T14:18:06.084Z,75.80
2022-11-07T14:20:16.498Z,75.80
2022-11-07T14:22:23.969Z,75.80
2022-11-07T14:24:29.067Z,76.20
2022-11-07T14:26:33.526Z,76.30
2022-11-07T14:28:37.763Z,76.40
2022-11-07T14:30:42.889Z,76.50
2022-11-07T14:32:50.842Z,76.80
2022-11-07T14:34:56.137Z,77.10
2022-11-07T14:37:02.023Z,77.10
2022-11-07T14:39:11.438Z,77.30
2022-11-07T14:41:19.393Z,77.30
2022-11-07T14:43:24.217Z,77.70
2022-11-07T14:45:56.985Z,77.80
2022-11-07T14:47:52.365Z,78.50
2022-11-07T14:49:57.830Z,77.90
2022-11-07T14:52:00.862Z,77.90
2022-11-07T14:54:07.983Z,78.00
2022-11-07T14:56:16.035Z,78.10
2022-11-07T14:58:23.755Z,78.20
2022-11-07T15:00:26.775Z,78.20
2022-11-07T15:02:32.058Z,78.30
2022-11-07T15:04:39.120Z,78.50
2022-11-07T15:06:45.297Z,78.50
2022-11-07T15:08:57.797Z,78.50
2022-11-07T15:11:06.096Z,78.70
2022-11-07T15:13:25.264Z,78.70
2022-11-07T15:15:32.083Z,78.80
2022-11-07T15:17:40.187Z,78.90
2022-11-07T15:19:43.522Z,78.90
2022-11-07T15:21:56.348Z,79.00
2022-11-07T15:24:00.358Z,79.20
2022-11-07T15:26:12.901Z,79.20
2022-11-07T15:28:23.222Z,79.20
2022-11-07T15:30:30.339Z,79.30
2022-11-07T15:32:38.097Z,79.30
2022-11-07T15:35:00.972Z,79.30
2022-11-07T15:37:11.904Z,79.10
2022-11-07T15:39:16.010Z,79.00
2022-11-07T15:41:19.638Z,79.00
2022-11-07T15:43:23.673Z,79.60
2022-11-07T15:45:26.686Z,78.90
2022-11-07T15:47:29.611Z,78.90
2022-11-07T15:49:34.142Z,78.80
2022-11-07T15:51:37.413Z,78.80
2022-11-07T15:53:41.741Z,78.70
2022-11-07T15:55:44.716Z,78.70
2022-11-07T15:57:50.808Z,78.60
2022-11-07T15:59:53.771Z,78.90
2022-11-07T16:01:56.888Z,78.70
2022-11-07T16:03:59.834Z,78.80
2022-11-07T16:06:03.001Z,78.50
2022-11-07T16:08:07.335Z,78.50
2022-11-07T16:10:20.378Z,78.50
2022-11-07T16:12:23.274Z,78.80
2022-11-07T16:16:50.106Z,78.90
2022-11-07T16:18:54.461Z,79.00
2022-11-07T16:20:57.281Z,79.10
2022-11-07T16:23:02.362Z,79.00
2022-11-07T16:25:13.232Z,79.00
2022-11-07T16:27:21.442Z,79.20
2022-11-07T16:29:25.478Z,79.70
2022-11-07T16:31:28.801Z,80.10
2022-11-07T16:33:31.845Z,80.30
2022-11-07T16:35:34.830Z,80.40
2022-11-07T16:37:37.709Z,80.50
2022-11-07T16:39:40.684Z,80.50
2022-11-07T16:41:43.709Z,80.40
2022-11-07T16:43:48.715Z,80.50
2022-11-07T16:45:53.421Z,80.50
2022-11-07T16:47:56.470Z,80.60
2022-11-07T16:49:59.646Z,80.80
2022-11-07T16:52:03.459Z,80.70
2022-11-07T16:54:06.553Z,80.70
2022-11-07T16:56:18.947Z,80.60
2022-11-07T16:58:27.825Z,80.70
2022-11-07T17:00:32.058Z,80.70
2022-11-07T17:02:35.216Z,80.70
2022-11-07T17:04:38.449Z,80.70
2022-11-07T17:06:46.981Z,80.60
2022-11-07T17:08:51.094Z,80.80
2022-11-07T17:10:54.092Z,80.90
2022-11-07T17:12:57.045Z,81.00
2022-11-07T17:15:00.130Z,81.00
2022-11-07T17:17:06.007Z,80.90
2022-11-07T17:19:09.008Z,80.90
2022-11-07T17:21:22.978Z,81.00
2022-11-07T17:23:30.199Z,81.20
2022-11-07T17:25:33.482Z,81.00
2022-11-07T17:27:38.911Z,80.90
2022-11-07T17:29:41.811Z,81.10
2022-11-07T17:31:45.002Z,81.40
2022-11-07T17:33:49.713Z,81.40
2022-11-07T17:35:56.088Z,81.50
2022-11-07T17:37:59.068Z,81.60
2022-11-07T17:40:02.069Z,81.50
2022-11-07T17:42:05.323Z,81.40
2022-11-07T17:44:08.748Z,81.40
2022-11-07T17:46:15.823Z,81.40
2022-11-07T17:48:19.198Z,81.40
2022-11-07T17:50:24.090Z,81.40
2022-11-07T17:52:27.293Z,81.50
2022-11-07T17:54:30.335Z,81.60
2022-11-07T17:56:34.500Z,81.50
2022-11-07T17:58:37.412Z,81.70
2022-11-07T18:00:41.461Z,81.60
2022-11-07T18:02:44.704Z,81.70
2022-11-07T18:04:48.161Z,81.70
2022-11-07T18:06:52.477Z,81.50
2022-11-07T18:08:58.020Z,81.90
2022-11-07T18:11:02.071Z,81.90
2022-11-07T18:13:23.314Z,81.70
2022-11-07T18:15:26.338Z,81.70
2022-11-07T18:17:29.296Z,81.70
2022-11-07T18:19:32.261Z,81.90
2022-11-07T18:21:35.186Z,81.90
2022-11-07T18:23:41.309Z,82.10
2022-11-07T18:25:44.372Z,81.90
2022-11-07T18:27:47.305Z,81.90
2022-11-07T18:29:50.205Z,81.80
2022-11-07T18:31:53.037Z,82.00
2022-11-07T18:33:58.190Z,82.10
2022-11-07T18:36:01.252Z,82.00
2022-11-07T18:38:04.379Z,82.10
2022-11-07T18:40:10.223Z,82.10
2022-11-07T18:42:13.116Z,82.20
2022-11-07T18:44:16.732Z,82.10
2022-11-07T18:46:19.754Z,82.30
2022-11-07T18:48:22.995Z,82.30
2022-11-07T18:50:25.997Z,82.20
2022-11-07T18:52:31.381Z,82.30
2022-11-07T18:54:34.372Z,82.40
2022-11-07T18:56:38.624Z,82.30
2022-11-07T18:58:42.916Z,82.30
2022-11-07T19:00:45.888Z,82.20
2022-11-07T19:02:48.823Z,82.20
2022-11-07T19:04:51.794Z,82.30
2022-11-07T19:06:57.813Z,82.20
2022-11-07T19:09:01.423Z,82.40
2022-11-07T19:11:07.794Z,82.40
2022-11-07T19:13:12.247Z,82.40
2022-11-07T19:15:15.228Z,82.40
2022-11-07T19:17:18.360Z,82.40
2022-11-07T19:19:21.288Z,82.60
2022-11-07T19:21:24.419Z,82.60
2022-11-07T19:23:27.602Z,82.80
2022-11-07T19:25:30.588Z,82.80
2022-11-07T19:27:34.848Z,82.80
2022-11-07T19:29:39.200Z,83.00
2022-11-07T19:31:42.452Z,83.50
2022-11-07T19:33:45.870Z,83.00
2022-11-07T19:35:58.119Z,83.00
2022-11-07T19:38:14.300Z,83.30
2022-11-07T19:40:17.401Z,83.30
2022-11-07T19:42:20.370Z,83.30
2022-11-07T19:44:23.402Z,83.40
2022-11-07T19:46:27.662Z,83.40
2022-11-07T19:48:30.652Z,83.50
2022-11-07T19:50:33.632Z,83.60
2022-11-07T19:52:36.566Z,83.70
2022-11-07T19:54:39.501Z,83.50
2022-11-07T19:56:42.566Z,83.50
2022-11-07T19:58:45.483Z,83.60
2022-11-07T20:00:48.468Z,83.60
2022-11-07T20:02:53.605Z,83.50
2022-11-07T20:04:56.536Z,83.60
2022-11-07T20:07:01.285Z,83.60
2022-11-07T20:09:06.200Z,83.60
2022-11-07T20:11:09.402Z,83.90
2022-11-07T20:13:12.351Z,83.90
2022-11-07T20:15:16.112Z,84.00
2022-11-07T20:17:19.033Z,83.90
2022-11-07T20:19:23.286Z,84.10
2022-11-07T20:21:26.222Z,84.10
2022-11-07T20:23:29.205Z,84.30
2022-11-07T20:25:32.806Z,84.10
2022-11-07T20:27:36.128Z,84.20
2022-11-07T20:29:39.064Z,84.10
2022-11-07T20:31:43.484Z,84.10
2022-11-07T20:33:46.461Z,84.00
2022-11-07T20:36:00.693Z,84.00
2022-11-07T20:38:05.619Z,84.10
2022-11-07T20:40:10.183Z,84.00
2022-11-07T20:42:13.857Z,84.10
2022-11-07T20:44:17.383Z,84.10
2022-11-07T20:46:20.586Z,84.10
2022-11-07T20:48:23.977Z,84.10
2022-11-07T20:50:26.898Z,84.20
2022-11-07T20:52:31.346Z,84.20
2022-11-07T20:54:34.269Z,84.20
2022-11-07T20:56:39.136Z,84.70
2022-11-07T20:58:44.503Z,84.30
2022-11-07T21:00:48.183Z,84.10
2022-11-07T21:02:51.255Z,84.10
2022-11-07T21:05:16.785Z,85.00
2022-11-07T21:07:18.592Z,84.40
2022-11-07T21:09:23.819Z,85.10
2022-11-07T21:11:27.080Z,84.20
2022-11-07T21:13:30.022Z,84.40
2022-11-07T21:15:33.229Z,84.60
2022-11-07T21:17:36.421Z,84.50
2022-11-07T21:19:39.377Z,84.70
2022-11-07T21:21:42.950Z,84.90
2022-11-07T21:23:46.237Z,84.80
2022-11-07T21:25:50.547Z,84.70
2022-11-07T21:27:53.508Z,84.50
2022-11-07T21:29:56.667Z,84.60
2022-11-07T21:31:59.649Z,84.60
2022-11-07T21:34:02.607Z,84.60
2022-11-07T21:36:10.358Z,84.80
2022-11-07T21:38:13.246Z,84.80
2022-11-07T21:40:16.165Z,84.70
2022-11-07T21:42:20.407Z,84.70
2022-11-07T21:44:23.328Z,84.50
2022-11-07T21:46:28.208Z,84.30
2022-11-07T21:48:31.156Z,84.40
2022-11-07T21:50:49.354Z,84.30
2022-11-07T21:52:52.401Z,84.60
2022-11-07T21:54:55.305Z,84.60
2022-11-07T21:56:58.196Z,84.80
2022-11-07T21:59:04.080Z,84.80
2022-11-07T22:01:07.165Z,84.80
2022-11-07T22:03:10.119Z,84.80
2022-11-07T22:05:15.528Z,84.80
2022-11-07T22:07:18.439Z,85.00
2022-11-07T22:09:22.528Z,84.70
2022-11-07T22:11:25.477Z,85.20
2022-11-07T22:13:28.872Z,85.20
2022-11-07T22:15:33.128Z,85.30
2022-11-07T22:17:36.043Z,85.30
2022-11-07T22:19:38.896Z,85.20
2022-11-07T22:21:42.525Z,85.30
2022-11-07T22:23:45.543Z,85.30
2022-11-07T22:25:48.441Z,85.30
2022-11-07T22:27:51.544Z,85.40
2022-11-07T22:29:54.444Z,85.30
2022-11-07T22:32:00.016Z,85.30
2022-11-07T22:34:03.340Z,85.30
2022-11-07T22:36:08.431Z,85.30
2022-11-07T22:38:11.387Z,85.30
2022-11-07T22:40:19.469Z,84.90
2022-11-07T22:42:24.007Z,84.90
2022-11-07T22:44:27.071Z,84.80
2022-11-07T22:46:31.612Z,85.00
2022-11-07T22:48:36.546Z,84.90
2022-11-07T22:50:40.722Z,85.10
2022-11-07T22:52:43.680Z,85.10
2022-11-07T22:54:46.559Z,84.80
2022-11-07T22:56:49.459Z,84.60
2022-11-07T22:58:52.467Z,84.50
2022-11-07T23:00:55.303Z,84.80
2022-11-07T23:02:58.624Z,85.10
2022-11-07T23:05:02.939Z,85.30
2022-11-07T23:07:06.032Z,85.60
2022-11-07T23:09:08.905Z,85.90
2022-11-07T23:11:44.479Z,86.00
2022-11-07T23:13:37.735Z,86.00
2022-11-07T23:15:40.757Z,86.10
2022-11-07T23:17:43.692Z,86.20
2022-11-07T23:19:46.672Z,86.10
2022-11-07T23:21:51.843Z,86.40
2022-11-07T23:23:56.198Z,86.40
2022-11-07T23:26:01.368Z,86.30
2022-11-07T23:28:07.386Z,86.30
2022-11-07T23:30:10.819Z,87.10
2022-11-07T23:32:13.848Z,86.60
2022-11-07T23:34:17.770Z,86.50
2022-11-07T23:36:20.658Z,86.60
2022-11-07T23:38:27.419Z,86.60
2022-11-07T23:40:30.322Z,86.70
2022-11-07T23:42:33.248Z,86.70
2022-11-07T23:44:57.031Z,86.70
2022-11-07T23:47:17.673Z,86.70
2022-11-07T23:49:38.304Z,86.60
2022-11-07T23:51:41.147Z,86.50
2022-11-07T23:54:02.986Z,86.40
2022-11-07T23:56:07.019Z,86.70
2022-11-07T23:58:27.644Z,86.70
